Time;durP1;ratioP1;P1;durP2;ratioP2;P2;SDS_P1;SDS_P2;PMS_P1;PMS_P2;Temp;Humidity;BMP_temperature;BMP_pressure;BME280_temperature;BME280_humidity;BME280_pressure;Samples;Min_cycle;Max_cycle;Signal;HPM_P1;HPM_P2
2022/02/13 00:02:08;;;;;;;6.20;3.60;;;;;;;;;;5009020;28;20732;-72
2022/02/13 00:04:34;;;;;;;8.67;4.17;;;;;;;;;;5025688;28;20229;-72
2022/02/13 00:07:02;;;;;;;5.53;3.23;;;;;;;;;;5029556;28;20235;-72
2022/02/13 00:09:32;;;;;;;5.77;3.73;;;;;;;;;;5011729;28;20285;-73
2022/02/13 00:12:02;;;;;;;5.50;3.73;;;;;;;;;;4995760;28;20283;-73
2022/02/13 00:14:28;;;;;;;4.50;3.37;;;;;;;;;;4996585;28;20247;-72
2022/02/13 00:16:56;;;;;;;6.13;3.03;;;;;;;;;;5012670;28;20705;-72
2022/02/13 00:19:22;;;;;;;4.40;3.50;;;;;;;;;;5021454;28;20228;-72
2022/02/13 00:21:49;;;;;;;7.07;3.33;;;;;;;;;;5008723;28;20236;-72
2022/02/13 00:24:15;;;;;;;5.53;3.70;;;;;;;;;;5018495;28;20233;-72
2022/02/13 00:26:43;;;;;;;6.03;3.80;;;;;;;;;;5011699;28;20767;-72
2022/02/13 00:29:10;;;;;;;6.90;3.67;;;;;;;;;;4995124;28;20220;-72
2022/02/13 00:31:36;;;;;;;6.30;3.40;;;;;;;;;;5011409;28;20228;-72
2022/02/13 00:34:02;;;;;;;6.00;3.73;;;;;;;;;;5013160;28;20651;-72
2022/02/13 00:36:32;;;;;;;3.93;3.33;;;;;;;;;;5012205;28;20309;-72
2022/02/13 00:38:58;;;;;;;7.70;3.63;;;;;;;;;;4995856;28;20225;-72
2022/02/13 00:41:24;;;;;;;6.63;3.70;;;;;;;;;;5011137;28;20612;-74
2022/02/13 00:43:54;;;;;;;9.40;3.90;;;;;;;;;;5027748;28;20225;-73
2022/02/13 00:46:24;;;;;;;5.53;3.70;;;;;;;;;;5010851;28;20653;-72
2022/02/13 00:48:52;;;;;;;6.23;3.97;;;;;;;;;;4995687;28;20213;-72
2022/02/13 00:51:18;;;;;;;6.90;3.67;;;;;;;;;;4997062;28;20291;-71
2022/02/13 00:53:43;;;;;;;5.10;3.93;;;;;;;;;;5011162;28;20795;-71
2022/02/13 00:56:09;;;;;;;8.07;4.00;;;;;;;;;;5010683;28;20224;-72
2022/02/13 00:58:37;;;;;;;7.57;4.10;;;;;;;;;;5011419;28;20259;-71
2022/02/13 01:01:02;;;;;;;4.33;3.37;;;;;;;;;;4978276;28;20233;-71
2022/02/13 01:03:29;;;;;;;4.80;3.67;;;;;;;;;;5011259;28;20586;-72
2022/02/13 01:05:54;;;;;;;6.90;3.53;;;;;;;;;;4994625;28;20715;-72
2022/02/13 01:08:24;;;;;;;6.90;3.70;;;;;;;;;;4994605;28;20231;-72
2022/02/13 01:10:52;;;;;;;4.70;3.77;;;;;;;;;;5011239;28;20308;-72
2022/02/13 01:13:20;;;;;;;6.33;3.70;;;;;;;;;;5010462;28;20232;-73
2022/02/13 01:15:45;;;;;;;6.17;4.30;;;;;;;;;;4994156;28;20224;-73
2022/02/13 01:18:12;;;;;;;5.57;3.73;;;;;;;;;;5010257;28;20307;-71
2022/02/13 01:20:38;;;;;;;7.70;4.23;;;;;;;;;;5010956;28;20310;-72
2022/02/13 01:23:04;;;;;;;8.27;4.47;;;;;;;;;;4993840;28;20794;-73
2022/02/13 01:25:32;;;;;;;4.37;3.97;;;;;;;;;;4994971;28;20304;-73
2022/02/13 01:28:00;;;;;;;6.73;4.50;;;;;;;;;;5011922;28;20243;-72
2022/02/13 01:30:27;;;;;;;5.87;3.83;;;;;;;;;;4994893;28;20228;-72
2022/02/13 01:32:55;;;;;;;6.13;3.60;;;;;;;;;;4991655;28;20239;-72
2022/02/13 01:35:21;;;;;;;5.80;4.00;;;;;;;;;;5043250;28;20221;-72
2022/02/13 01:37:51;;;;;;;5.10;3.53;;;;;;;;;;4994700;28;20239;-72
2022/02/13 01:40:17;;;;;;;5.63;3.60;;;;;;;;;;5010804;28;20235;-72
2022/02/13 01:42:43;;;;;;;5.50;3.93;;;;;;;;;;4993953;28;20690;-72
2022/02/13 01:45:13;;;;;;;5.40;3.30;;;;;;;;;;5009151;28;20224;-72
2022/02/13 01:47:41;;;;;;;8.13;3.67;;;;;;;;;;4995348;28;20256;-73
2022/02/13 01:50:08;;;;;;;8.53;4.10;;;;;;;;;;5026280;28;20217;-72
2022/02/13 01:52:34;;;;;;;6.60;4.13;;;;;;;;;;5010291;28;20233;-72
2022/02/13 01:54:59;;;;;;;8.67;4.47;;;;;;;;;;5009531;28;20300;-73
2022/02/13 01:57:27;;;;;;;5.93;3.90;;;;;;;;;;5010189;28;20221;-72
2022/02/13 01:59:55;;;;;;;8.47;4.13;;;;;;;;;;5026632;28;20228;-73
2022/02/13 02:02:21;;;;;;;5.83;4.20;;;;;;;;;;5009299;28;20332;-71
2022/02/13 02:04:47;;;;;;;8.63;3.90;;;;;;;;;;5012286;28;20722;-72
2022/02/13 02:07:13;;;;;;;6.40;3.73;;;;;;;;;;4993313;28;20220;-71
2022/02/13 02:09:44;;;;;;;4.80;3.57;;;;;;;;;;4977839;28;20655;-71
2022/02/13 02:12:10;;;;;;;6.23;4.00;;;;;;;;;;4974140;28;20233;-72
2022/02/13 02:14:35;;;;;;;6.43;4.17;;;;;;;;;;5025204;28;20650;-72
2022/02/13 02:17:01;;;;;;;6.50;3.97;;;;;;;;;;5009397;28;20756;-71
2022/02/13 02:19:27;;;;;;;9.37;4.03;;;;;;;;;;4993525;28;20228;-71
2022/02/13 02:21:55;;;;;;;7.13;3.47;;;;;;;;;;4993782;28;20224;-73
2022/02/13 02:24:23;;;;;;;8.87;3.97;;;;;;;;;;5011735;28;20224;-72
2022/02/13 02:26:51;;;;;;;5.67;3.77;;;;;;;;;;5014220;28;20267;-72
2022/02/13 02:29:17;;;;;;;7.30;4.53;;;;;;;;;;4996354;28;20224;-72
2022/02/13 02:31:43;;;;;;;7.47;4.60;;;;;;;;;;5012865;28;20710;-73
2022/02/13 02:34:08;;;;;;;6.83;4.10;;;;;;;;;;5009542;28;20283;-72
2022/02/13 02:36:36;;;;;;;6.03;4.13;;;;;;;;;;4998574;28;20231;-72
2022/02/13 02:39:06;;;;;;;6.13;3.83;;;;;;;;;;5006355;28;20233;-71
2022/02/13 02:41:37;;;;;;;6.03;4.33;;;;;;;;;;5015932;28;20801;-72
2022/02/13 02:44:03;;;;;;;9.20;4.87;;;;;;;;;;5009298;28;20307;-72
2022/02/13 02:46:31;;;;;;;6.53;4.37;;;;;;;;;;4995927;28;20236;-72
2022/02/13 02:48:59;;;;;;;5.27;4.03;;;;;;;;;;5007552;28;20712;-73
2022/02/13 02:51:29;;;;;;;5.40;3.83;;;;;;;;;;5013761;28;20231;-71
2022/02/13 02:53:57;;;;;;;8.37;4.40;;;;;;;;;;4993900;28;20610;-72
2022/02/13 02:56:23;;;;;;;7.03;4.20;;;;;;;;;;4992647;28;20990;-72
2022/02/13 02:58:48;;;;;;;6.47;4.10;;;;;;;;;;4993446;28;20224;-72
2022/02/13 03:01:14;;;;;;;5.13;3.70;;;;;;;;;;5012828;28;20220;-71
2022/02/13 03:03:44;;;;;;;7.63;4.33;;;;;;;;;;4996713;28;20232;-73
2022/02/13 03:06:10;;;;;;;8.43;4.37;;;;;;;;;;5012947;28;20711;-72
2022/02/13 03:08:39;;;;;;;8.10;4.13;;;;;;;;;;4997453;28;20279;-70
2022/02/13 03:11:04;;;;;;;6.13;4.23;;;;;;;;;;5012901;28;20618;-72
2022/02/13 03:13:30;;;;;;;6.77;4.13;;;;;;;;;;5013484;28;20319;-71
2022/02/13 03:15:58;;;;;;;7.40;4.17;;;;;;;;;;4997013;28;20239;-72
2022/02/13 03:18:29;;;;;;;7.63;4.60;;;;;;;;;;4997179;28;20228;-71
2022/02/13 03:20:56;;;;;;;8.13;4.50;;;;;;;;;;4997842;28;20232;-72
2022/02/13 03:23:21;;;;;;;7.90;4.70;;;;;;;;;;5011794;28;20314;-72
2022/02/13 03:25:49;;;;;;;6.80;4.60;;;;;;;;;;5013205;28;20231;-71
2022/02/13 03:28:15;;;;;;;6.40;4.37;;;;;;;;;;5013953;28;20307;-72
2022/02/13 03:30:43;;;;;;;5.87;4.37;;;;;;;;;;4996998;28;20224;-72
2022/02/13 03:33:11;;;;;;;7.77;4.70;;;;;;;;;;5011906;28;20718;-71
2022/02/13 03:35:40;;;;;;;8.70;4.63;;;;;;;;;;5012758;28;20240;-71
2022/02/13 03:38:05;;;;;;;9.83;5.13;;;;;;;;;;5028898;28;20248;-71
2022/02/13 03:40:31;;;;;;;7.17;4.70;;;;;;;;;;5014829;28;20248;-72
2022/02/13 03:42:59;;;;;;;7.83;4.77;;;;;;;;;;5012110;28;20746;-72
2022/02/13 03:45:27;;;;;;;8.50;4.53;;;;;;;;;;5030022;28;20232;-71
2022/02/13 03:47:55;;;;;;;7.30;4.83;;;;;;;;;;5029792;28;20220;-71
2022/02/13 03:50:20;;;;;;;6.90;4.80;;;;;;;;;;5013279;28;20225;-72
2022/02/13 03:52:48;;;;;;;9.67;5.47;;;;;;;;;;5012064;28;20240;-72
2022/02/13 03:55:16;;;;;;;7.47;4.97;;;;;;;;;;4996022;28;20231;-71
2022/02/13 03:57:44;;;;;;;5.30;4.50;;;;;;;;;;4996554;28;20245;-71
2022/02/13 04:00:12;;;;;;;8.83;4.97;;;;;;;;;;5012101;28;20266;-72
2022/02/13 04:02:40;;;;;;;7.97;5.00;;;;;;;;;;4995936;28;20231;-72
2022/02/13 04:05:06;;;;;;;9.83;5.17;;;;;;;;;;4995546;28;20308;-72
2022/02/13 04:07:35;;;;;;;6.83;4.97;;;;;;;;;;4992516;28;20220;-72
2022/02/13 04:10:00;;;;;;;8.33;5.10;;;;;;;;;;5028351;28;20590;-71
2022/02/13 04:12:28;;;;;;;6.67;4.70;;;;;;;;;;5026421;28;20282;-72
2022/02/13 04:14:56;;;;;;;7.97;5.13;;;;;;;;;;5012485;28;20234;-72
2022/02/13 04:17:22;;;;;;;8.93;4.93;;;;;;;;;;4994622;28;20674;-73
2022/02/13 04:19:52;;;;;;;8.27;5.07;;;;;;;;;;5012336;28;20687;-72
2022/02/13 04:22:18;;;;;;;8.00;5.30;;;;;;;;;;5011163;28;20247;-71
2022/02/13 04:24:46;;;;;;;9.43;5.07;;;;;;;;;;5011838;28;20225;-72
2022/02/13 04:27:11;;;;;;;7.27;4.67;;;;;;;;;;5027917;28;20221;-72
2022/02/13 04:29:39;;;;;;;8.23;5.13;;;;;;;;;;4995578;28;20274;-72
2022/02/13 04:32:06;;;;;;;7.00;5.33;;;;;;;;;;4994698;28;20229;-72
2022/02/13 04:34:31;;;;;;;9.20;5.33;;;;;;;;;;4975710;28;20676;-72
2022/02/13 04:36:59;;;;;;;8.00;4.87;;;;;;;;;;5024941;28;20229;-73
2022/02/13 04:39:28;;;;;;;11.10;5.37;;;;;;;;;;5022502;28;20305;-72
2022/02/13 04:41:58;;;;;;;8.37;4.87;;;;;;;;;;4993266;28;20237;-72
2022/02/13 04:44:24;;;;;;;7.90;5.83;;;;;;;;;;5010946;28;20255;-73
2022/02/13 04:46:49;;;;;;;6.37;5.20;;;;;;;;;;5028189;28;20252;-72
2022/02/13 04:49:17;;;;;;;6.60;4.33;;;;;;;;;;5011203;28;20311;-72
2022/02/13 04:51:45;;;;;;;9.63;4.43;;;;;;;;;;4994632;28;20229;-73
2022/02/13 04:54:10;;;;;;;9.27;4.90;;;;;;;;;;5001621;28;20316;-72
2022/02/13 04:56:38;;;;;;;6.43;4.60;;;;;;;;;;5024824;28;20227;-73
2022/02/13 04:59:04;;;;;;;8.20;4.20;;;;;;;;;;5037497;28;20224;-74
2022/02/13 05:01:36;;;;;;;6.87;4.23;;;;;;;;;;5011256;28;20213;-72
2022/02/13 05:04:04;;;;;;;7.07;4.43;;;;;;;;;;5027080;28;20271;-73
2022/02/13 05:06:30;;;;;;;6.40;3.50;;;;;;;;;;4995372;28;20228;-72
2022/02/13 05:08:56;;;;;;;5.73;3.73;;;;;;;;;;5010581;28;20627;-74
2022/02/13 05:11:26;;;;;;;6.23;3.77;;;;;;;;;;4993763;28;20240;-73
2022/02/13 05:13:52;;;;;;;6.70;4.07;;;;;;;;;;4995181;28;20714;-72
2022/02/13 05:16:22;;;;;;;5.57;4.00;;;;;;;;;;5010837;28;20311;-72
2022/02/13 05:18:48;;;;;;;5.47;3.57;;;;;;;;;;5010821;28;20232;-73
2022/02/13 05:21:16;;;;;;;4.20;3.10;;;;;;;;;;4993815;28;20212;-74
2022/02/13 05:23:44;;;;;;;5.20;3.33;;;;;;;;;;4994093;28;20477;-72
2022/02/13 05:26:11;;;;;;;5.47;3.47;;;;;;;;;;5009986;28;20224;-72
2022/02/13 05:28:39;;;;;;;5.67;3.10;;;;;;;;;;5010089;28;20228;-72
2022/02/13 05:31:09;;;;;;;6.87;3.33;;;;;;;;;;5010511;28;20247;-72
2022/02/13 05:33:37;;;;;;;3.60;2.60;;;;;;;;;;5010292;28;20698;-72
2022/02/13 05:36:05;;;;;;;5.00;2.97;;;;;;;;;;4993974;28;20232;-71
2022/02/13 05:38:33;;;;;;;6.17;3.13;;;;;;;;;;4993665;28;20220;-71
2022/02/13 05:41:06;;;;;;;4.20;2.80;;;;;;;;;;5012050;28;20216;-73
2022/02/13 05:43:32;;;;;;;3.90;2.73;;;;;;;;;;5006619;28;20228;-72
2022/02/13 05:45:59;;;;;;;4.87;3.07;;;;;;;;;;4990285;28;20268;-72
2022/02/13 05:48:31;;;;;;;5.03;3.10;;;;;;;;;;5022602;28;20639;-73
2022/02/13 05:50:59;;;;;;;4.43;2.80;;;;;;;;;;4994659;28;20721;-72
2022/02/13 05:53:26;;;;;;;6.13;3.17;;;;;;;;;;4993278;28;20878;-72
2022/02/13 05:55:52;;;;;;;6.27;3.07;;;;;;;;;;5010057;28;20282;-72
2022/02/13 05:58:20;;;;;;;3.97;3.17;;;;;;;;;;5009659;28;20217;-72
2022/02/13 06:00:52;;;;;;;6.80;3.20;;;;;;;;;;5011592;28;20221;-72
2022/02/13 06:03:20;;;;;;;4.17;3.07;;;;;;;;;;5009128;28;20312;-72
2022/02/13 06:05:46;;;;;;;4.60;3.20;;;;;;;;;;4993510;28;20315;-72
2022/02/13 06:08:16;;;;;;;3.67;2.80;;;;;;;;;;4993494;28;20224;-76
2022/02/13 06:10:41;;;;;;;5.10;3.07;;;;;;;;;;5010678;28;20442;-72
2022/02/13 06:13:11;;;;;;;5.07;3.20;;;;;;;;;;5025972;28;20767;-72
2022/02/13 06:15:38;;;;;;;6.33;3.13;;;;;;;;;;4994120;28;20224;-72
2022/02/13 06:18:07;;;;;;;5.50;3.27;;;;;;;;;;5008559;28;20228;-73
2022/02/13 06:20:33;;;;;;;6.20;3.83;;;;;;;;;;5042841;28;20225;-72
2022/02/13 06:22:59;;;;;;;4.47;3.00;;;;;;;;;;4993211;28;20704;-72
2022/02/13 06:25:24;;;;;;;5.20;3.40;;;;;;;;;;5009994;28;20227;-72
2022/02/13 06:27:50;;;;;;;7.70;3.77;;;;;;;;;;4994475;28;20305;-72
2022/02/13 06:30:15;;;;;;;4.50;3.10;;;;;;;;;;5010832;28;20239;-72
2022/02/13 06:32:43;;;;;;;5.53;3.20;;;;;;;;;;5009601;28;20316;-72
2022/02/13 06:35:24;;;;;;;5.23;3.70;;;;;;;;;;4975753;28;20212;-71
2022/02/13 06:37:53;;;;;;;5.30;3.60;;;;;;;;;;5005976;28;20229;-72
2022/02/13 06:40:21;;;;;;;4.63;3.33;;;;;;;;;;5015421;28;20270;-73
2022/02/13 06:42:49;;;;;;;4.70;3.50;;;;;;;;;;5011335;28;20232;-71
2022/02/13 06:45:14;;;;;;;5.83;3.90;;;;;;;;;;5010169;28;20221;-73
2022/02/13 06:47:45;;;;;;;6.77;3.77;;;;;;;;;;4978363;28;20709;-71
2022/02/13 06:50:11;;;;;;;5.60;3.60;;;;;;;;;;4978428;28;20221;-73
2022/02/13 06:52:41;;;;;;;6.30;3.97;;;;;;;;;;5007510;28;20287;-73
2022/02/13 06:55:07;;;;;;;5.87;3.50;;;;;;;;;;5028831;28;20219;-72
2022/02/13 06:57:42;;;;;;;6.13;3.73;;;;;;;;;;4994153;28;20224;-72
2022/02/13 07:00:08;;;;;;;6.30;3.90;;;;;;;;;;5008620;28;20218;-73
2022/02/13 07:02:34;;;;;;;5.90;3.43;;;;;;;;;;5025302;28;20224;-72
2022/02/13 07:05:02;;;;;;;6.47;4.10;;;;;;;;;;4976927;28;20313;-73
2022/02/13 07:07:27;;;;;;;3.60;3.30;;;;;;;;;;5007190;28;20226;-72
2022/02/13 07:09:53;;;;;;;5.73;3.93;;;;;;;;;;5022054;28;20230;-73
2022/02/13 07:12:18;;;;;;;7.53;4.37;;;;;;;;;;5009082;28;20236;-73
2022/02/13 07:14:46;;;;;;;7.03;4.17;;;;;;;;;;5009723;28;20240;-72
2022/02/13 07:17:14;;;;;;;4.80;3.97;;;;;;;;;;5020339;28;20315;-73
2022/02/13 07:19:42;;;;;;;6.67;3.70;;;;;;;;;;4981717;28;20687;-73
2022/02/13 07:22:10;;;;;;;5.57;4.30;;;;;;;;;;5035278;28;20236;-74
2022/02/13 07:24:37;;;;;;;5.57;4.50;;;;;;;;;;5009821;28;20228;-74
2022/02/13 07:27:04;;;;;;;9.10;4.70;;;;;;;;;;4993024;28;20217;-74
2022/02/13 07:29:30;;;;;;;8.60;5.60;;;;;;;;;;4993539;28;20240;-74
2022/02/13 07:31:56;;;;;;;8.07;4.70;;;;;;;;;;5009488;28;20263;-74
2022/02/13 07:34:23;;;;;;;8.60;4.43;;;;;;;;;;4992196;28;20256;-74
2022/02/13 07:36:54;;;;;;;7.50;4.90;;;;;;;;;;5026003;28;20231;-74
2022/02/13 07:39:22;;;;;;;6.13;4.60;;;;;;;;;;5007613;28;26107;-73
2022/02/13 07:41:49;;;;;;;7.83;4.60;;;;;;;;;;5010184;28;20256;-74
2022/02/13 07:44:19;;;;;;;6.73;4.83;;;;;;;;;;4993263;28;20681;-73
2022/02/13 07:46:45;;;;;;;7.40;5.27;;;;;;;;;;5011433;28;20304;-74
2022/02/13 07:49:10;;;;;;;5.73;4.63;;;;;;;;;;5014865;28;20220;-73
2022/02/13 07:51:36;;;;;;;8.27;4.97;;;;;;;;;;5012720;28;20237;-74
2022/02/13 07:54:02;;;;;;;9.30;4.33;;;;;;;;;;5012271;28;20235;-74
2022/02/13 07:56:27;;;;;;;6.90;4.57;;;;;;;;;;4997324;28;20224;-75
2022/02/13 07:58:53;;;;;;;7.27;4.17;;;;;;;;;;5012717;28;20221;-74
2022/02/13 08:01:21;;;;;;;4.97;4.00;;;;;;;;;;5012111;28;20213;-74
2022/02/13 08:03:46;;;;;;;10.27;7.67;;;;;;;;;;5012830;28;20605;-73
2022/02/13 08:06:12;;;;;;;8.00;6.30;;;;;;;;;;5012234;28;20757;-73
2022/02/13 08:08:40;;;;;;;4.73;3.80;;;;;;;;;;4979572;28;20287;-74
2022/02/13 08:11:10;;;;;;;4.73;3.80;;;;;;;;;;4976491;28;20249;-73
2022/02/13 08:13:36;;;;;;;5.10;4.03;;;;;;;;;;5009000;28;20248;-74
2022/02/13 08:16:02;;;;;;;5.63;3.67;;;;;;;;;;5020771;28;20316;-75
2022/02/13 08:18:30;;;;;;;7.97;3.50;;;;;;;;;;4976545;28;20610;-73
2022/02/13 08:23:34;;;;;;;4.33;3.00;;;;;;;;;;4924657;29;20322;-73
2022/02/13 08:26:02;;;;;;;4.80;3.57;;;;;;;;;;4932303;29;20278;-74
2022/02/13 08:28:31;;;;;;;4.33;3.60;;;;;;;;;;4883966;29;20678;-72
2022/02/13 08:30:57;;;;;;;6.70;3.50;;;;;;;;;;4884752;29;20231;-72
2022/02/13 08:33:22;;;;;;;4.33;3.63;;;;;;;;;;4902951;29;20647;-72
2022/02/13 08:35:50;;;;;;;3.97;3.30;;;;;;;;;;4904366;29;20227;-72
2022/02/13 08:38:16;;;;;;;4.70;3.07;;;;;;;;;;4890149;29;20224;-72
2022/02/13 08:40:42;;;;;;;5.53;3.30;;;;;;;;;;4925614;29;20235;-73
2022/02/13 08:43:08;;;;;;;5.07;3.77;;;;;;;;;;4919686;29;20295;-72
2022/02/13 08:45:34;;;;;;;3.87;3.13;;;;;;;;;;4920289;29;20278;-73
2022/02/13 08:47:59;;;;;;;5.23;3.77;;;;;;;;;;4938308;29;20719;-73
2022/02/13 08:50:27;;;;;;;3.53;3.10;;;;;;;;;;4880935;29;20306;-73
2022/02/13 08:52:53;;;;;;;5.37;3.40;;;;;;;;;;4883535;29;20310;-74
2022/02/13 08:55:23;;;;;;;4.57;3.53;;;;;;;;;;4884024;29;20701;-74
2022/02/13 08:57:53;;;;;;;3.87;3.20;;;;;;;;;;4901696;29;20376;-73
2022/02/13 09:00:21;;;;;;;4.13;3.20;;;;;;;;;;4898271;29;20215;-73
2022/02/13 09:02:52;;;;;;;5.97;3.50;;;;;;;;;;4908569;29;20235;-72
2022/02/13 09:05:18;;;;;;;4.20;2.87;;;;;;;;;;4898452;29;20220;-72
2022/02/13 09:07:43;;;;;;;4.63;2.90;;;;;;;;;;4894531;29;20652;-72
2022/02/13 09:10:10;;;;;;;4.83;2.90;;;;;;;;;;4900821;29;20224;-72
2022/02/13 09:12:36;;;;;;;4.33;3.10;;;;;;;;;;4896138;29;20263;-73
2022/02/13 09:15:01;;;;;;;6.20;3.10;;;;;;;;;;4901138;29;20327;-73
2022/02/13 09:17:27;;;;;;;4.83;3.37;;;;;;;;;;4886629;29;20228;-72
2022/02/13 09:19:52;;;;;;;5.50;3.03;;;;;;;;;;4899550;29;20222;-73
2022/02/13 09:22:20;;;;;;;4.17;2.93;;;;;;;;;;4909223;29;20226;-73
2022/02/13 09:24:49;;;;;;;6.87;5.20;;;;;;;;;;4892544;29;20323;-74
2022/02/13 09:27:14;;;;;;;5.87;4.40;;;;;;;;;;4927002;29;20220;-72
2022/02/13 09:29:42;;;;;;;4.30;3.10;;;;;;;;;;4899304;29;20216;-73
2022/02/13 09:32:08;;;;;;;4.23;3.00;;;;;;;;;;4881182;28;20233;-72
2022/02/13 09:34:36;;;;;;;4.43;3.03;;;;;;;;;;4898073;29;20240;-72
2022/02/13 09:37:04;;;;;;;7.10;3.50;;;;;;;;;;4902137;29;20220;-73
2022/02/13 09:39:32;;;;;;;3.27;2.73;;;;;;;;;;4881235;29;20227;-72
2022/02/13 09:42:00;;;;;;;4.23;3.07;;;;;;;;;;4917130;29;20223;-73
2022/02/13 09:44:30;;;;;;;4.00;2.93;;;;;;;;;;4904689;29;20235;-73
2022/02/13 09:46:56;;;;;;;4.67;3.37;;;;;;;;;;4901814;29;20818;-72
2022/02/13 09:49:24;;;;;;;4.57;3.30;;;;;;;;;;4906054;29;20240;-73
2022/02/13 09:51:50;;;;;;;5.43;3.20;;;;;;;;;;4881200;29;20732;-72
2022/02/13 09:54:18;;;;;;;4.13;2.90;;;;;;;;;;4920410;29;20239;-73
2022/02/13 09:56:49;;;;;;;3.67;3.00;;;;;;;;;;4909982;29;20794;-74
2022/02/13 09:59:15;;;;;;;4.93;2.93;;;;;;;;;;4884842;29;20287;-73
2022/02/13 10:01:47;;;;;;;3.57;2.93;;;;;;;;;;4894349;29;20235;-73
2022/02/13 10:04:13;;;;;;;3.27;2.67;;;;;;;;;;4890500;29;20846;-73
2022/02/13 10:06:41;;;;;;;4.50;3.40;;;;;;;;;;4934253;29;20239;-74
2022/02/13 10:09:08;;;;;;;5.67;3.10;;;;;;;;;;4884600;29;20283;-73
2022/02/13 10:11:34;;;;;;;4.00;3.07;;;;;;;;;;4885504;29;20240;-73
2022/02/13 10:14:04;;;;;;;4.03;3.20;;;;;;;;;;4894468;29;20219;-75
2022/02/13 10:16:34;;;;;;;4.37;3.30;;;;;;;;;;4900399;29;20239;-73
2022/02/13 10:19:16;;;;;;;5.50;3.70;;;;;;;;;;4917112;29;20306;-72
2022/02/13 10:21:45;;;;;;;4.50;3.30;;;;;;;;;;4900897;29;20306;-73
2022/02/13 10:24:14;;;;;;;4.03;2.90;;;;;;;;;;4902148;29;20258;-74
2022/02/13 10:26:40;;;;;;;4.50;3.73;;;;;;;;;;4896325;29;20243;-74
2022/02/13 10:29:09;;;;;;;4.63;3.10;;;;;;;;;;4915723;29;20223;-73
2022/02/13 10:31:35;;;;;;;3.97;3.37;;;;;;;;;;4914702;29;20779;-74
2022/02/13 10:34:03;;;;;;;6.00;3.97;;;;;;;;;;4899106;29;20232;-75
2022/02/13 10:36:31;;;;;;;4.23;3.40;;;;;;;;;;4910188;29;20706;-74
2022/02/13 10:38:58;;;;;;;4.70;3.10;;;;;;;;;;4892747;29;20231;-74
2022/02/13 10:41:27;;;;;;;3.47;3.17;;;;;;;;;;4900610;29;20223;-74
2022/02/13 10:43:56;;;;;;;3.20;2.70;;;;;;;;;;4916933;29;20302;-73
2022/02/13 10:46:30;;;;;;;3.27;2.83;;;;;;;;;;4901534;29;20231;-75
2022/02/13 10:48:55;;;;;;;4.13;3.17;;;;;;;;;;4889350;29;20215;-73
2022/02/13 10:51:21;;;;;;;4.73;3.40;;;;;;;;;;4898962;29;20587;-73
2022/02/13 10:53:47;;;;;;;4.07;3.23;;;;;;;;;;4885242;29;20283;-73
2022/02/13 10:56:13;;;;;;;6.47;3.90;;;;;;;;;;4915908;29;20231;-74
2022/02/13 10:58:38;;;;;;;6.07;5.27;;;;;;;;;;4900598;29;20238;-71
2022/02/13 11:01:07;;;;;;;4.40;3.27;;;;;;;;;;4902474;29;20211;-72
2022/02/13 11:03:35;;;;;;;3.57;3.00;;;;;;;;;;4902529;29;20286;-73
2022/02/13 11:06:05;;;;;;;4.57;3.33;;;;;;;;;;4935467;28;20230;-72
2022/02/13 11:08:33;;;;;;;3.40;2.90;;;;;;;;;;4911451;29;20227;-72
2022/02/13 11:10:59;;;;;;;6.23;3.13;;;;;;;;;;4884002;29;20288;-72
2022/02/13 11:13:35;;;;;;;3.83;3.10;;;;;;;;;;4915119;29;20231;-73
2022/02/13 11:16:01;;;;;;;5.43;3.00;;;;;;;;;;4915674;29;20281;-74
2022/02/13 11:18:33;;;;;;;5.77;3.30;;;;;;;;;;4900148;29;20231;-73
2022/02/13 11:20:58;;;;;;;4.47;3.20;;;;;;;;;;4916912;29;20271;-75
2022/02/13 11:23:31;;;;;;;3.90;3.33;;;;;;;;;;4903239;29;20309;-73
2022/02/13 11:25:59;;;;;;;3.80;3.13;;;;;;;;;;4889268;29;20246;-73
2022/02/13 11:28:46;;;;;;;5.10;2.90;;;;;;;;;;4936703;29;20322;-73
2022/02/13 11:31:45;;;;;;;5.10;3.30;;;;;;;;;;4913185;29;20228;-74
2022/02/13 11:34:26;;;;;;;3.87;3.07;;;;;;;;;;4890320;28;20678;-74
2022/02/13 11:36:56;;;;;;;3.97;2.80;;;;;;;;;;4916130;29;20235;-74
2022/02/13 11:39:33;;;;;;;4.83;3.30;;;;;;;;;;4888582;28;20258;-74
2022/02/13 11:42:20;;;;;;;4.50;2.97;;;;;;;;;;4918642;29;20227;-74
2022/02/13 11:44:54;;;;;;;4.40;3.20;;;;;;;;;;4909745;29;20252;-74
2022/02/13 11:47:32;;;;;;;4.27;3.30;;;;;;;;;;4913725;28;20214;-74
2022/02/13 11:50:03;;;;;;;4.47;3.13;;;;;;;;;;4928897;29;20211;-73
2022/02/13 11:52:29;;;;;;;4.60;3.10;;;;;;;;;;4932950;28;20243;-74
2022/02/13 11:54:58;;;;;;;4.47;3.23;;;;;;;;;;4931481;29;20214;-73
2022/02/13 11:57:30;;;;;;;3.67;2.80;;;;;;;;;;4934271;28;20362;-74
2022/02/13 11:59:55;;;;;;;5.43;3.50;;;;;;;;;;4900262;29;20216;-73
2022/02/13 12:02:32;;;;;;;3.57;3.20;;;;;;;;;;4941386;28;20232;-74
2022/02/13 12:05:07;;;;;;;3.20;2.90;;;;;;;;;;4926826;29;20698;-72
2022/02/13 12:07:38;;;;;;;5.70;3.13;;;;;;;;;;4938984;28;20322;-73
2022/02/13 12:10:26;;;;;;;4.57;3.47;;;;;;;;;;4929509;28;20215;-74
2022/02/13 12:12:55;;;;;;;5.73;3.63;;;;;;;;;;4917500;29;20239;-73
2022/02/13 12:15:25;;;;;;;4.37;3.37;;;;;;;;;;4928311;28;20217;-73
2022/02/13 12:17:51;;;;;;;5.00;3.43;;;;;;;;;;4927852;29;20235;-75
2022/02/13 12:20:19;;;;;;;4.70;2.80;;;;;;;;;;4897715;28;20216;-74
2022/02/13 12:22:47;;;;;;;5.07;3.20;;;;;;;;;;4897535;29;20618;-75
2022/02/13 12:25:12;;;;;;;3.73;2.70;;;;;;;;;;4927345;28;20306;-75
2022/02/13 12:27:41;;;;;;;3.67;2.97;;;;;;;;;;4925177;29;20306;-74
2022/02/13 12:30:12;;;;;;;3.73;3.20;;;;;;;;;;4920484;28;20223;-72
2022/02/13 12:32:38;;;;;;;4.17;3.00;;;;;;;;;;4930299;29;20255;-73
2022/02/13 12:35:10;;;;;;;3.23;2.93;;;;;;;;;;4911492;28;20295;-74
2022/02/13 12:37:46;;;;;;;3.40;3.10;;;;;;;;;;4899588;29;20223;-74
2022/02/13 12:40:16;;;;;;;5.20;3.47;;;;;;;;;;4901094;28;20254;-72
2022/02/13 12:42:56;;;;;;;4.77;3.33;;;;;;;;;;4921452;29;20238;-74
2022/02/13 12:45:25;;;;;;;4.23;3.03;;;;;;;;;;4923899;28;20319;-74
2022/02/13 12:47:57;;;;;;;4.40;3.03;;;;;;;;;;4946362;28;20219;-74
2022/02/13 12:50:25;;;;;;;4.37;3.10;;;;;;;;;;4918093;29;20243;-73
2022/02/13 12:53:00;;;;;;;4.30;3.00;;;;;;;;;;4915584;29;20231;-74
2022/02/13 12:55:26;;;;;;;4.20;2.67;;;;;;;;;;4896013;29;20749;-75
2022/02/13 12:57:56;;;;;;;3.80;3.13;;;;;;;;;;4920611;29;20370;-74
2022/02/13 13:00:28;;;;;;;4.40;3.00;;;;;;;;;;4893762;29;20322;-74
2022/02/13 13:02:57;;;;;;;4.60;3.03;;;;;;;;;;4918609;29;20722;-74
2022/02/13 13:05:28;;;;;;;3.60;3.17;;;;;;;;;;4949857;28;20570;-74
2022/02/13 13:08:09;;;;;;;3.90;3.00;;;;;;;;;;4897729;29;20313;-74
2022/02/13 13:10:41;;;;;;;3.87;2.67;;;;;;;;;;4927255;29;20230;-72
2022/02/13 13:13:08;;;;;;;3.87;2.97;;;;;;;;;;4906376;29;20235;-74
2022/02/13 13:15:37;;;;;;;3.33;2.83;;;;;;;;;;4927347;29;20282;-72
2022/02/13 13:18:04;;;;;;;3.27;2.90;;;;;;;;;;4931867;29;20238;-73
2022/02/13 13:20:31;;;;;;;5.87;4.17;;;;;;;;;;4914213;29;20616;-73
2022/02/13 13:23:16;;;;;;;4.10;3.03;;;;;;;;;;4920640;29;20242;-74
2022/02/13 13:25:46;;;;;;;3.80;2.90;;;;;;;;;;4932077;29;20223;-74
2022/02/13 13:28:14;;;;;;;3.63;2.97;;;;;;;;;;4920523;28;20234;-71
2022/02/13 13:30:43;;;;;;;3.00;2.70;;;;;;;;;;4914682;29;20227;-72
2022/02/13 13:33:09;;;;;;;3.67;2.80;;;;;;;;;;4930300;29;20215;-73
2022/02/13 13:35:34;;;;;;;3.93;2.90;;;;;;;;;;4901122;29;20247;-73
2022/02/13 13:38:10;;;;;;;2.70;2.40;;;;;;;;;;4920234;28;20228;-73
2022/02/13 13:40:39;;;;;;;5.20;3.10;;;;;;;;;;4901547;29;20292;-72
2022/02/13 13:43:12;;;;;;;3.73;3.00;;;;;;;;;;4901547;28;20246;-74
2022/02/13 13:45:44;;;;;;;3.53;2.87;;;;;;;;;;4919887;29;20226;-72
2022/02/13 13:48:16;;;;;;;4.83;3.77;;;;;;;;;;4896284;29;20233;-74
2022/02/13 13:50:51;;;;;;;3.70;2.87;;;;;;;;;;4927709;29;20227;-72
2022/02/13 13:53:25;;;;;;;3.67;3.20;;;;;;;;;;4900964;29;20227;-72
2022/02/13 13:55:56;;;;;;;3.77;2.97;;;;;;;;;;4918655;29;20223;-74
2022/02/13 13:58:25;;;;;;;5.97;5.43;;;;;;;;;;4930373;29;20339;-72
2022/02/13 14:00:53;;;;;;;6.23;3.10;;;;;;;;;;4893619;29;20298;-73
2022/02/13 14:03:21;;;;;;;4.03;3.50;;;;;;;;;;4916807;29;20732;-74
2022/02/13 14:05:49;;;;;;;3.60;3.20;;;;;;;;;;4900146;29;20224;-74
2022/02/13 14:08:18;;;;;;;3.60;3.00;;;;;;;;;;4925127;28;20231;-74
2022/02/13 14:10:46;;;;;;;4.87;3.87;;;;;;;;;;4912136;29;20262;-73
2022/02/13 14:13:16;;;;;;;3.83;3.13;;;;;;;;;;4911940;29;20237;-73
2022/02/13 14:15:42;;;;;;;14.80;11.80;;;;;;;;;;4916550;29;20776;-72
2022/02/13 14:18:10;;;;;;;5.20;3.30;;;;;;;;;;4909551;28;20231;-73
2022/02/13 14:20:37;;;;;;;3.20;2.90;;;;;;;;;;4916940;29;20302;-72
2022/02/13 14:23:03;;;;;;;3.80;3.10;;;;;;;;;;4926764;29;20231;-74
2022/02/13 14:25:29;;;;;;;3.43;3.13;;;;;;;;;;4897465;29;20226;-72
2022/02/13 14:27:54;;;;;;;3.27;2.97;;;;;;;;;;4902963;29;20310;-72
2022/02/13 14:30:22;;;;;;;4.47;3.10;;;;;;;;;;4901185;29;22695;-72
2022/02/13 14:32:48;;;;;;;3.97;2.77;;;;;;;;;;4898678;29;20223;-73
2022/02/13 14:35:17;;;;;;;4.77;2.70;;;;;;;;;;4906515;29;20224;-72
2022/02/13 14:37:49;;;;;;;4.20;2.87;;;;;;;;;;4903550;29;20246;-71
2022/02/13 14:40:18;;;;;;;3.33;2.60;;;;;;;;;;4909639;28;20223;-73
2022/02/13 14:42:48;;;;;;;3.37;2.60;;;;;;;;;;4911735;29;20234;-73
2022/02/13 14:45:14;;;;;;;2.80;2.50;;;;;;;;;;4892541;29;20331;-75
2022/02/13 14:47:44;;;;;;;5.37;2.47;;;;;;;;;;4898786;29;20222;-74
2022/02/13 14:50:13;;;;;;;3.67;2.40;;;;;;;;;;4886404;28;20227;-73
2022/02/13 14:52:41;;;;;;;3.30;2.40;;;;;;;;;;4906070;29;20230;-72